Map

Track Data

SID SEASON NUMBER BASIN SUBBASIN NAME ISO_TIME NATURE LAT LON WMO_WIND WMO_PRES WMO_AGENCY TRACK_TYPE DIST2LAND LANDFALL IFLAG USA_AGENCY USA_ATCF_ID USA_LAT USA_LON USA_RECORD USA_STATUS USA_WIND USA_PRES USA_SSHS USA_R34_NE USA_R34_SE USA_R34_SW USA_R34_NW USA_R50_NE USA_R50_SE USA_R50_SW USA_R50_NW USA_R64_NE USA_R64_SE USA_R64_SW USA_R64_NW USA_POCI USA_ROCI USA_RMW USA_EYE TOKYO_LAT TOKYO_LON TOKYO_GRADE TOKYO_WIND TOKYO_PRES TOKYO_R50_DIR TOKYO_R50_LONG TOKYO_R50_SHORT TOKYO_R30_DIR TOKYO_R30_LONG TOKYO_R30_SHORT TOKYO_LAND CMA_LAT CMA_LON CMA_CAT CMA_WIND CMA_PRES HKO_LAT HKO_LON HKO_CAT HKO_WIND HKO_PRES NEWDELHI_LAT NEWDELHI_LON NEWDELHI_GRADE NEWDELHI_WIND NEWDELHI_PRES NEWDELHI_CI NEWDELHI_DP NEWDELHI_POCI REUNION_LAT REUNION_LON REUNION_TYPE REUNION_WIND REUNION_PRES REUNION_TNUM REUNION_CI REUNION_RMW REUNION_R34_NE REUNION_R34_SE REUNION_R34_SW REUNION_R34_NW REUNION_R50_NE REUNION_R50_SE REUNION_R50_SW REUNION_R50_NW REUNION_R64_NE REUNION_R64_SE REUNION_R64_SW REUNION_R64_NW BOM_LAT BOM_LON BOM_TYPE BOM_WIND BOM_PRES BOM_TNUM BOM_CI BOM_RMW BOM_R34_NE BOM_R34_SE BOM_R34_SW BOM_R34_NW BOM_R50_NE BOM_R50_SE BOM_R50_SW BOM_R50_NW BOM_R64_NE BOM_R64_SE BOM_R64_SW BOM_R64_NW BOM_ROCI BOM_POCI BOM_EYE BOM_POS_METHOD BOM_PRES_METHOD NADI_LAT NADI_LON NADI_CAT NADI_WIND NADI_PRES WELLINGTON_LAT WELLINGTON_LON WELLINGTON_WIND WELLINGTON_PRES DS824_LAT DS824_LON DS824_STAGE DS824_WIND DS824_PRES TD9636_LAT TD9636_LON TD9636_STAGE TD9636_WIND TD9636_PRES TD9635_LAT TD9635_LON TD9635_WIND TD9635_PRES TD9635_ROCI NEUMANN_LAT NEUMANN_LON NEUMANN_CLASS NEUMANN_WIND NEUMANN_PRES MLC_LAT MLC_LON MLC_CLASS MLC_WIND MLC_PRES USA_GUST BOM_GUST BOM_GUST_PER REUNION_GUST REUNION_GUST_PER USA_SEAHGT USA_SEARAD_NE USA_SEARAD_SE USA_SEARAD_SW USA_SEARAD_NW STORM_SPEED STORM_DIR
1973108S12082 1973 44 SI MM ROMA 1973-04-18 00:00:00 TS -12.0000 82.3000 main 2014 2009 O________OO_O_ jtwc_sh SH341973 -12.0000 82.3000 -1 -12.0000 82.3000 TC 25 1002 -12.0000 82.3000 7 -12.0000 82.3000 TC 25 1002 10 266
1973108S12082 1973 44 SI MM ROMA 1973-04-18 03:00:00 TS -12.0357 81.8047 main 2009 2008 P________PP_P_ SH341973 -11.9754 81.7024 -1 -12.1150 81.9101 TC 27 1001 -11.9979 81.7984 7 -12.1150 81.9101 TC 27 1001 9 265
1973108S12082 1973 44 SI MM ROMA 1973-04-18 06:00:00 TS -12.0872 81.3475 main 2018 2017 O________OP_O_ jtwc_sh SH341973 -12.0000 81.2000 -1 -12.2000 81.5000 TC 30 1000 -12.0361 81.3375 7 -12.2000 81.5000 TC 30 1000 8 260
1973108S12082 1973 44 SI MM ROMA 1973-04-18 09:00:00 TS -12.1832 80.9666 main 2028 2028 P________PP_P_ SH341973 -12.1249 80.8676 -1 -12.2550 81.0699 TC 32 999 -12.1563 80.9579 7 -12.2550 81.0699 TC 32 999 7 244
1973108S12082 1973 44 SI MM ROMA 1973-04-18 12:00:00 TS -12.4000 80.7000 main 2050 2050 O________OO_O_ jtwc_sh SH341973 -12.4000 80.7000 -1 -12.4000 80.7000 TC 35 998 -12.4000 80.7000 7 -12.4000 80.7000 TC 35 998 7 214
1973108S12082 1973 44 SI MM ROMA 1973-04-18 15:00:00 TS -12.8019 80.5412 main 2095 2095 P________PP_P_ SH341973 -12.8700 80.6549 -1 -12.7399 80.4028 TC 35 997 -12.7896 80.5903 7 -12.7399 80.4028 TC 35 997 9 191
1973108S12082 1973 44 SI MM ROMA 1973-04-18 18:00:00 TS -13.2939 80.5199 main 2151 2151 O________OP_O_ jtwc_sh SH341973 -13.4000 80.7000 -1 -13.2000 80.3000 TC 35 996 -13.2696 80.5995 7 -13.2000 80.3000 TC 35 996 10 175
1973108S12082 1973 44 SI MM ROMA 1973-04-18 21:00:00 TS -13.7830 80.6326 main 2207 2207 P________PP_P_ SH341973 -13.8450 80.7350 -1 -13.7301 80.5045 TC 37 994 -13.7648 80.6840 7 -13.7301 80.5045 TC 37 994 10 163
1973108S12082 1973 44 SI MM ROMA 1973-04-19 00:00:00 TS -14.2000 80.8000 main 2251 2251 O________OO_O_ jtwc_sh SH341973 -14.2000 80.8000 -1 -14.2000 80.8000 TC 40 993 -14.2000 80.8000 7 -14.2000 80.8000 TC 40 993 7 158
1973108S12082 1973 44 SI MM ROMA 1973-04-19 03:00:00 TS -14.4444 80.9058 main 2274 2274 P________PP_P_ SH341973 -14.4300 80.8925 -1 -14.4449 80.9227 TC 42 992 -14.4719 80.8986 7 -14.4449 80.9227 TC 42 992 5 155
1973108S12082 1973 44 SI MM ROMA 1973-04-19 06:00:00 TS -14.6150 81.0030 main 2297 2297 O________OP_O_ jtwc_sh SH341973 -14.6000 81.0000 -1 -14.6000 81.0000 TC 45 991 -14.6750 81.0148 7 -14.6000 81.0000 TC 45 991 4 151
1973108S12082 1973 44 SI MM ROMA 1973-04-19 09:00:00 TS -14.8081 81.1137 main 2319 2319 P________PP_P_ SH341973 -14.8000 81.1075 -1 -14.8000 81.1150 TC 47 990 -14.8406 81.1236 7 -14.8000 81.1150 TC 47 990 4 154
1973108S12082 1973 44 SI MM ROMA 1973-04-19 12:00:00 TS -15.0000 81.2000 main 2342 2342 O________OO_O_ jtwc_sh SH341973 -15.0000 81.2000 -1 -15.0000 81.2000 TC 50 989 -15.0000 81.2000 7 -15.0000 81.2000 TC 50 989 4 161
1973108S12082 1973 44 SI MM ROMA 1973-04-19 15:00:00 TS -15.2008 81.2529 main 2365 2365 P________PP_P_ SH341973 -15.2000 81.2800 -1 -15.2000 81.2225 TC 50 988 -15.2039 81.2595 7 -15.2000 81.2225 TC 50 988 4 172
1973108S12082 1973 44 SI MM ROMA 1973-04-19 18:00:00 TS -15.4014 81.2554 main 2387 2387 O________OP_O_ jtwc_sh SH341973 -15.4000 81.3000 -1 -15.4000 81.2000 TC 50 987 -15.4071 81.2772 7 -15.4000 81.2000 TC 50 987 4 187
1973108S12082 1973 44 SI MM ROMA 1973-04-19 21:00:00 TS -15.6073 81.2222 main 2409 2409 P________PP_P_ SH341973 -15.6074 81.2525 -1 -15.6075 81.1874 TC 52 985 -15.6069 81.2313 7 -15.6075 81.1874 TC 52 985 4 200
1973108S12082 1973 44 SI MM ROMA 1973-04-20 00:00:00 TS -15.8000 81.1000 main 2431 2431 O________OO_O_ jtwc_sh SH341973 -15.8000 81.1000 -1 -15.8000 81.1000 TC 55 983 -15.8000 81.1000 7 -15.8000 81.1000 TC 55 983 5 225
1973108S12082 1973 44 SI MM ROMA 1973-04-20 03:00:00 TS -15.9532 80.8658 main 2453 2451 P________PP_P_ SH341973 -15.9500 80.8374 -1 -15.9499 80.9024 TC 55 982 -15.9663 80.8491 7 -15.9499 80.9024 TC 57 982 6 240
1973108S12082 1973 44 SI MM ROMA 1973-04-20 06:00:00 TS -16.1056 80.5435 main 2441 2404 O________OP_O_ jtwc_sh SH341973 -16.1000 80.5000 -1 -16.1000 80.6000 TC 55 982 -16.1281 80.5175 7 -16.1000 80.6000 TC 60 982 7 243
1973108S12082 1973 44 SI MM ROMA 1973-04-20 09:00:00 TS -16.2852 80.1734 main 2404 2358 P________PP_P_ SH341973 -16.2850 80.1500 -1 -16.2776 80.2075 TC 55 982 -16.3007 80.1522 7 -16.2776 80.2075 TC 60 982 8 241
1973108S12082 1973 44 SI MM ROMA 1973-04-20 12:00:00 TS -16.5000 79.8000 main 2358 2321 O________OO_O_ jtwc_sh SH341973 -16.5000 79.8000 -1 -16.5000 79.8000 TC 55 982 -16.5000 79.8000 7 -16.5000 79.8000 TC 60 982 8 235
1973108S12082 1973 44 SI MM ROMA 1973-04-20 15:00:00 TS -16.7578 79.4670 main 2319 2283 P________PP_P_ SH341973 -16.7350 79.4775 -1 -16.7924 79.4700 TC 55 982 -16.7341 79.4399 7 -16.7924 79.4700 TC 60 982 8 228
1973108S12082 1973 44 SI MM ROMA 1973-04-20 18:00:00 TS -17.0395 79.1828 main 2283 2244 O________OP_O_ jtwc_sh SH341973 -17.0000 79.2000 -1 -17.1000 79.2000 TC 55 982 -16.9975 79.1140 7 -17.1000 79.2000 TC 60 982 8 224
1973108S12082 1973 44 SI MM ROMA 1973-04-20 21:00:00 TS -17.3084 78.9074 main 2244 2227 P________PP_P_ SH341973 -17.2850 78.9178 -1 -17.3424 78.9102 TC 55 982 -17.2870 78.8809 7 -17.3424 78.9102 TC 60 982 7 213
1973108S12082 1973 44 SI MM ROMA 1973-04-21 00:00:00 TS -17.6000 78.8000 main 2227 2225 O________OO_O_ jtwc_sh SH341973 -17.6000 78.8000 -1 -17.6000 78.8000 TC 55 982 -17.6000 78.8000 7 -17.6000 78.8000 TC 60 982 6 173
1973108S12082 1973 44 SI MM ROMA 1973-04-21 03:00:00 TS -17.9352 78.9882 main 2242 2240 P________PP_P_ SH341973 -17.9425 78.9673 -1 -17.9351 79.0247 TC 55 982 -17.9206 78.9569 7 -17.9351 79.0247 TC 57 982 9 144
1973108S12082 1973 44 SI MM ROMA 1973-04-21 06:00:00 TS -18.2926 79.3327 main 2265 2265 O________OP_O_ jtwc_sh SH341973 -18.3000 79.3000 -1 -18.3000 79.4000 TC 55 983 -18.2631 79.2634 7 -18.3000 79.4000 TC 55 983 10 138
1973108S12082 1973 44 SI MM ROMA 1973-04-21 09:00:00 TS -18.6388 79.6648 main 2302 2300 P________PP_P_ SH341973 -18.6425 79.6426 -1 -18.6425 79.7002 TC 55 983 -18.6240 79.6384 7 -18.6425 79.7002 TC 55 983 10 138
1973108S12082 1973 44 SI MM ROMA 1973-04-21 12:00:00 TS -19.0000 80.0000 main 2327 2327 O________OO_O_ jtwc_sh SH341973 -19.0000 80.0000 -1 -19.0000 80.0000 TC 55 984 -19.0000 80.0000 7 -19.0000 80.0000 TC 55 984 10 141
1973108S12082 1973 44 SI MM ROMA 1973-04-21 15:00:00 TS -19.3960 80.3223 main 2353 2353 P________PP_P_ SH341973 -19.3925 80.3374 -1 -19.3926 80.3299 TC 55 984 -19.4099 80.2771 7 -19.3926 80.3299 TC 55 984 10 146
1973108S12082 1973 44 SI MM ROMA 1973-04-21 18:00:00 TS -19.8060 80.5839 main 2380 2379 O________OP_O_ jtwc_sh SH341973 -19.8000 80.6000 -1 -19.8000 80.6000 TC 55 985 -19.8299 80.5193 7 -19.8000 80.6000 TC 55 985 9 154
1973108S12082 1973 44 SI MM ROMA 1973-04-21 21:00:00 TS -20.2189 80.7484 main 2386 2386 P________PP_P_ SH341973 -20.2149 80.7601 -1 -20.2149 80.7601 TC 52 985 -20.2349 80.7019 7 -20.2149 80.7601 TC 55 985 8 166
1973108S12082 1973 44 SI MM ROMA 1973-04-22 00:00:00 TS -20.6000 80.8000 main 2394 2382 O________OO_O_ jtwc_sh SH341973 -20.6000 80.8000 -1 -20.6000 80.8000 TC 50 986 -20.6000 80.8000 7 -20.6000 80.8000 TC 55 986 7 0
1973108S12082 1973 44 SI MM ROMA 1973-04-22 03:00:00 TS -20.9259 80.7416 main 2382 2370 P________PP_P_ SH341973 -20.9300 80.7302 -1 -20.9300 80.7302 TC 50 987 -20.9093 80.7871 7 -20.9300 80.7302 TC 52 987 6 196
1973108S12082 1973 44 SI MM ROMA 1973-04-22 06:00:00 TS -21.1950 80.6182 main 2370 2359 O________OP_O_ jtwc_sh SH341973 -21.2000 80.6000 -1 -21.2000 80.6000 TC 50 988 -21.1749 80.6911 7 -21.2000 80.6000 TC 50 988 5 204
1973108S12082 1973 44 SI MM ROMA 1973-04-22 09:00:00 TS -21.4156 80.5098 main 2359 2348 P________PP_P_ SH341973 -21.4225 80.5000 -1 -21.4150 80.4999 TC 47 989 -21.4031 80.5494 7 -21.4150 80.4999 TC 47 989 5 207
1973108S12082 1973 44 SI MM ROMA 1973-04-22 12:00:00 TS -21.6000 80.4000 main 2348 2338 O________OO_O_ jtwc_sh SH341973 -21.6000 80.4000 -1 -21.6000 80.4000 TC 45 990 -21.6000 80.4000 7 -21.6000 80.4000 TC 45 990 4 209
1973108S12082 1973 44 SI MM ROMA 1973-04-22 15:00:00 TS -21.7834 80.2947 main 2338 2328 P________PP_P_ SH341973 -21.7575 80.3000 -1 -21.8150 80.3000 TC 45 991 -21.7719 80.2734 7 -21.8150 80.3000 TC 45 991 4 209
1973108S12082 1973 44 SI MM ROMA 1973-04-22 18:00:00 TS -21.9450 80.1939 main 2328 2317 O________OP_O_ jtwc_sh SH341973 -21.9000 80.2000 -1 -22.0000 80.2000 TC 45 992 -21.9250 80.1696 7 -22.0000 80.2000 TC 45 992 4 212
1973108S12082 1973 44 SI MM ROMA 1973-04-22 21:00:00 TS -22.0801 80.0962 main 2318 2307 P________PP_P_ SH341973 -22.0475 80.1001 -1 -22.1200 80.1000 TC 42 993 -22.0656 80.0810 7 -22.1200 80.1000 TC 42 993 3 216
1973108S12082 1973 44 SI MM ROMA 1973-04-23 00:00:00 TS -22.2000 80.0000 main 2307 O________OO_O_ jtwc_sh SH341973 -22.2000 80.0000 -1 -22.2000 80.0000 TC 40 995 -22.2000 80.0000 7 -22.2000 80.0000 TC 40 995 3 216

About IBTrACS Database

This database is a web-friendly format of International Best Track Archive for Climate Stewardship (IBTrACS), a global best track data archive curated by NOAA dating back to 1842.

Updated: 2021-10-08